Saturday, January 31, 2015
16:08 UTC
  |  Log In   |  Register Free
Airport Search:

Coleman Municipal Airport
(KCOM)

Coleman Municipal Airport Diagram
No Airport Diagram Available

FAA data valid effective January 08, 2015 - March 05, 2015 (unless otherwise noted).

 
 
 
 
 
 
 
 
 
 
 
 
 
 

Current Aviation Weather for Coleman Municipal Airport (KCOM)

The most recent METAR observation for KCOM was updated at: 1508
METAR Summary (Translated METAR)
KCOM
311455Z AUTO 13008KT 10SM -RA SCT014 SCT024 OVC043 08/05 A3009 RMK AO2 T00820048
KBWD
311455Z AUTO 14008KT 10SM BKN015 OVC050 09/04 A3011 RMK AO2
(23 nm SE from KCOM)
KABI
311452Z 17008KT 4SM -RA SCT015 OVC024 07/04 A3008 RMK AO2 RAB31 SLP184 P0001 60001 T00720044 55002
(37 nm NW from KCOM)
TAF Summary (Translated TAF)
KABI
(37 nm NW from KCOM)
311120Z 3112/0112 14010KT 6SM BR OVC015 FM311400 15014G20KT 3SM RA BR OVC007 FM311900 16014G21KT 3SM RA BR OVC004 FM312200 17012KT 4SM -RA BR OVC004 TEMPO 0102/0103 4SM -RA BR OVC003 FM010300 18011G17KT 3SM -RA BR OVC003
  Airport Weather Conditions for KCOM

 Current Weather at COM
47° F
Overcast
Southeast winds at 9.2 mph
COM NOAA Radar

Pressure: 30.08 in
Humidity: 73%
Wind: Southeast at 9.2 MPH (8 KT)
Dew Point: 39.2°F
Visibility: 10.00 mi


Airport Weather Forecast for KCOM

Translated METAR and TAF for KCOM
Translated METAR for KCOM (1608 UTC 31 January 2015)
found at http://aviationweather.gov/adds/metars/
 
METAR text: KCOM 311555Z AUTO 13007KT 10SM RA OVC018 08/06 A3008 RMK AO2 T00830062
Conditions at: KCOM (COLEMAN MUNI , TX, US) observed 1555 UTC 31 January 2015
Temperature: 8.3°C (47°F)
Dewpoint: 6.2°C (43°F) [RH = 87%]
Pressure (altimeter): 30.08 inches Hg (1018.7 mb)
Winds: from the SE (130 degrees) at 8 MPH (7 knots; 3.6 m/s)
Visibility: 10 or more miles (16+ km)
Ceiling: 1800 feet AGL
Clouds: overcast cloud deck at 1800 feet AGL
Weather: RA  (rain)
Translated TAF for KCOM

There is no translated TAF available for this airport

Find All Airport Services Find A Hotel Find A Rental Car Find A Golf Course Find A Restaurant $100 Hamburger



FBO's on the Field
FBO Company Facility Photos Services Transportation Aviation Fuel Prices: Prices include tax
Catering Weather Repair Courtesy Rental Type 100LL JetA JetA+ MOGAS 8087
 
Add another FBO Facility Photos Catering Weather Repair Courtesy Rental Type 100LL JetA JetA+ MOGAS 8087
Services Transportation Aviation Fuel Prices: Prices include tax
There are no FBO's currently reporting fuel at COM. List your FBO now


model-print
model-print
model-print
model-print